Time;durP1;ratioP1;P1;durP2;ratioP2;P2;SDS_P1;SDS_P2;PMS_P1;PMS_P2;Temp;Humidity;BMP_temperature;BMP_pressure;BME280_temperature;BME280_humidity;BME280_pressure;Samples;Min_cycle;Max_cycle;Signal;HPM_P1;HPM_P2
2023/04/20 00:00:16;;;;;;;6.10;1.45;;;;;;;;;;2053067;28;20031;-64
2023/04/20 00:01:35;;;;;;;12.05;1.80;;;;;;;;;;2048339;28;20055;-65
2023/04/20 00:02:54;;;;;;;3.53;1.35;;;;;;;;;;2052179;28;20506;-64
2023/04/20 00:04:14;;;;;;;8.52;1.60;;;;;;;;;;2053652;28;20464;-63
2023/04/20 00:05:33;;;;;;;6.30;1.50;;;;;;;;;;2052059;28;20686;-64
2023/04/20 00:06:52;;;;;;;6.55;1.23;;;;;;;;;;2048677;28;20043;-63
2023/04/20 00:08:11;;;;;;;4.95;1.52;;;;;;;;;;2051189;28;20500;-63
2023/04/20 00:09:30;;;;;;;5.72;1.52;;;;;;;;;;2052362;28;20038;-63
2023/04/20 00:10:49;;;;;;;4.35;1.27;;;;;;;;;;2050787;28;20027;-63
2023/04/20 00:12:08;;;;;;;7.45;1.52;;;;;;;;;;2049343;28;20034;-63
2023/04/20 00:13:28;;;;;;;8.55;2.10;;;;;;;;;;2050947;28;20034;-64
2023/04/20 00:14:47;;;;;;;8.93;1.17;;;;;;;;;;2050819;28;21453;-64
2023/04/20 00:16:06;;;;;;;6.18;1.45;;;;;;;;;;2053221;28;20039;-63
2023/04/20 00:17:24;;;;;;;7.63;1.98;;;;;;;;;;2052122;28;20046;-63
2023/04/20 00:18:47;;;;;;;6.93;1.42;;;;;;;;;;2050378;28;20392;-63
2023/04/20 00:20:08;;;;;;;13.63;1.33;;;;;;;;;;2050313;28;20043;-63
2023/04/20 00:21:27;;;;;;;5.95;1.80;;;;;;;;;;2051899;28;20411;-64
2023/04/20 00:22:47;;;;;;;4.85;1.10;;;;;;;;;;2051485;28;20037;-62
2023/04/20 00:24:06;;;;;;;7.60;1.30;;;;;;;;;;2049044;28;20043;-63
2023/04/20 00:25:25;;;;;;;2.38;1.08;;;;;;;;;;2053615;28;20528;-64
2023/04/20 00:26:44;;;;;;;12.98;1.92;;;;;;;;;;2052879;28;20063;-64
2023/04/20 00:28:03;;;;;;;8.63;1.25;;;;;;;;;;2050921;28;20034;-64
2023/04/20 00:29:23;;;;;;;2.60;1.00;;;;;;;;;;2054475;28;20031;-64
2023/04/20 00:30:41;;;;;;;2.40;1.00;;;;;;;;;;2054272;28;20465;-65
2023/04/20 00:32:00;;;;;;;4.88;1.00;;;;;;;;;;2051847;28;20079;-64
2023/04/20 00:33:19;;;;;;;7.50;1.05;;;;;;;;;;2051041;28;20031;-64
2023/04/20 00:34:38;;;;;;;5.15;1.00;;;;;;;;;;2055592;28;20054;-64
2023/04/20 00:36:00;;;;;;;10.50;1.63;;;;;;;;;;2051581;28;20035;-64
2023/04/20 00:37:19;;;;;;;6.47;1.35;;;;;;;;;;2053351;28;20026;-62
2023/04/20 00:38:38;;;;;;;4.88;1.10;;;;;;;;;;2052410;28;20034;-62
2023/04/20 00:39:57;;;;;;;6.30;1.48;;;;;;;;;;2052444;28;20035;-63
2023/04/20 00:41:16;;;;;;;9.30;1.23;;;;;;;;;;2053383;28;20039;-65
2023/04/20 00:42:36;;;;;;;3.17;0.90;;;;;;;;;;2053630;28;20027;-64
2023/04/20 00:43:54;;;;;;;3.58;1.00;;;;;;;;;;2054061;28;20031;-67
2023/04/20 00:45:13;;;;;;;5.45;1.17;;;;;;;;;;2052978;28;20030;-64
2023/04/20 00:46:32;;;;;;;8.25;1.05;;;;;;;;;;2054695;28;20031;-64
2023/04/20 00:47:52;;;;;;;4.85;1.08;;;;;;;;;;2056287;28;20042;-65
2023/04/20 00:49:11;;;;;;;4.47;1.08;;;;;;;;;;2054636;28;20035;-65
2023/04/20 00:50:30;;;;;;;4.53;1.23;;;;;;;;;;2054702;28;20503;-64
2023/04/20 00:51:48;;;;;;;2.05;0.90;;;;;;;;;;2052938;28;20106;-63
2023/04/20 00:53:07;;;;;;;3.78;1.17;;;;;;;;;;2053694;28;20035;-67
2023/04/20 00:54:27;;;;;;;5.82;1.17;;;;;;;;;;2055462;28;20030;-63
2023/04/20 00:55:46;;;;;;;10.77;1.52;;;;;;;;;;2050643;28;20015;-65
2023/04/20 00:57:05;;;;;;;5.72;1.20;;;;;;;;;;2051329;28;20488;-64
2023/04/20 00:58:25;;;;;;;4.97;1.13;;;;;;;;;;2051935;28;20060;-64
2023/04/20 00:59:43;;;;;;;7.00;1.30;;;;;;;;;;2055303;28;20142;-64
2023/04/20 01:01:02;;;;;;;4.60;1.23;;;;;;;;;;2053058;28;20031;-65
2023/04/20 01:02:21;;;;;;;2.42;0.90;;;;;;;;;;2053571;28;20484;-64
2023/04/20 01:03:40;;;;;;;3.42;0.80;;;;;;;;;;2053883;28;20678;-64
2023/04/20 01:05:01;;;;;;;6.18;1.00;;;;;;;;;;2054558;28;20050;-64
2023/04/20 01:06:20;;;;;;;3.83;1.20;;;;;;;;;;2054283;28;20126;-64
2023/04/20 01:07:39;;;;;;;3.22;0.90;;;;;;;;;;2053820;28;20035;-67
2023/04/20 01:08:58;;;;;;;1.25;0.90;;;;;;;;;;2054326;28;20027;-63
2023/04/20 01:10:17;;;;;;;1.27;0.95;;;;;;;;;;2053768;28;20043;-65
2023/04/20 01:11:35;;;;;;;3.45;1.00;;;;;;;;;;2056002;28;20110;-64
2023/04/20 01:12:54;;;;;;;1.13;0.80;;;;;;;;;;2055534;28;20023;-63
2023/04/20 01:14:13;;;;;;;4.97;1.00;;;;;;;;;;2051126;28;20032;-63
2023/04/20 01:15:34;;;;;;;1.55;1.25;;;;;;;;;;2048500;28;20508;-64
2023/04/20 01:16:54;;;;;;;2.72;1.08;;;;;;;;;;2054671;28;20046;-65
2023/04/20 01:18:14;;;;;;;3.00;1.00;;;;;;;;;;2053351;28;20031;-65
2023/04/20 01:19:33;;;;;;;7.88;1.35;;;;;;;;;;2052720;28;20042;-64
2023/04/20 01:20:52;;;;;;;4.88;1.00;;;;;;;;;;2052838;28;20031;-64
2023/04/20 01:22:13;;;;;;;5.82;1.10;;;;;;;;;;2052443;28;20492;-64
2023/04/20 01:23:33;;;;;;;5.43;1.10;;;;;;;;;;2052497;28;20035;-64
2023/04/20 01:24:52;;;;;;;9.07;1.30;;;;;;;;;;2056544;28;20063;-65
2023/04/20 01:26:13;;;;;;;6.68;1.20;;;;;;;;;;2052169;28;20027;-64
2023/04/20 01:27:32;;;;;;;2.90;0.82;;;;;;;;;;2053418;28;20642;-63
2023/04/20 01:28:50;;;;;;;5.45;1.60;;;;;;;;;;2052412;28;20034;-64
2023/04/20 01:30:10;;;;;;;3.10;1.30;;;;;;;;;;2056510;28;20385;-65
2023/04/20 01:31:29;;;;;;;2.13;1.20;;;;;;;;;;2056520;28;20404;-64
2023/04/20 01:32:48;;;;;;;5.15;1.70;;;;;;;;;;2052463;28;20031;-64
2023/04/20 01:34:07;;;;;;;2.50;1.13;;;;;;;;;;2052908;28;20380;-63
2023/04/20 01:35:27;;;;;;;2.90;1.10;;;;;;;;;;2054339;28;20686;-63
2023/04/20 01:36:46;;;;;;;6.25;1.02;;;;;;;;;;2055537;28;20062;-63
2023/04/20 01:38:05;;;;;;;6.13;1.40;;;;;;;;;;2055792;28;20042;-64
2023/04/20 01:39:24;;;;;;;3.53;1.20;;;;;;;;;;2053804;28;20626;-64
2023/04/20 01:40:43;;;;;;;4.50;1.10;;;;;;;;;;2051946;28;20489;-62
2023/04/20 01:42:02;;;;;;;6.80;1.10;;;;;;;;;;2054146;28;20113;-64
2023/04/20 01:43:21;;;;;;;5.50;1.17;;;;;;;;;;2050437;28;20046;-63
2023/04/20 01:44:40;;;;;;;2.15;1.05;;;;;;;;;;2053457;28;20031;-64
2023/04/20 01:45:59;;;;;;;5.20;0.95;;;;;;;;;;2053659;28;20030;-64
2023/04/20 01:47:18;;;;;;;2.72;0.95;;;;;;;;;;2052677;28;20024;-63
2023/04/20 01:48:37;;;;;;;6.88;1.30;;;;;;;;;;2053278;28;20039;-64
2023/04/20 01:49:56;;;;;;;2.47;1.00;;;;;;;;;;2051960;28;20023;-64
2023/04/20 01:51:15;;;;;;;3.95;1.27;;;;;;;;;;2053362;28;20023;-64
2023/04/20 01:52:34;;;;;;;4.70;1.00;;;;;;;;;;2051711;28;20031;-63
2023/04/20 01:53:53;;;;;;;3.78;0.98;;;;;;;;;;2054941;28;20102;-64
2023/04/20 01:55:12;;;;;;;3.80;1.85;;;;;;;;;;2054067;28;20026;-66
2023/04/20 01:56:31;;;;;;;7.20;2.15;;;;;;;;;;2051929;28;20067;-64
2023/04/20 01:57:50;;;;;;;5.82;1.60;;;;;;;;;;2053387;28;20995;-64
2023/04/20 01:59:09;;;;;;;2.90;1.00;;;;;;;;;;2055044;28;20109;-64
2023/04/20 02:00:28;;;;;;;1.38;1.10;;;;;;;;;;2051809;28;20479;-64
2023/04/20 02:01:47;;;;;;;6.53;1.63;;;;;;;;;;2053134;28;20066;-64
2023/04/20 02:03:06;;;;;;;3.58;1.35;;;;;;;;;;2052162;28;20038;-64
2023/04/20 02:04:25;;;;;;;5.35;1.30;;;;;;;;;;2052679;28;20110;-64
2023/04/20 02:05:44;;;;;;;7.75;1.55;;;;;;;;;;2052947;28;20428;-64
2023/04/20 02:07:03;;;;;;;7.35;1.15;;;;;;;;;;2054630;28;20035;-64
2023/04/20 02:08:22;;;;;;;8.90;1.33;;;;;;;;;;2053391;28;20031;-64
2023/04/20 02:09:41;;;;;;;3.92;1.40;;;;;;;;;;2049731;28;20043;-64
2023/04/20 02:11:00;;;;;;;11.73;1.60;;;;;;;;;;2053085;28;20015;-64
2023/04/20 02:12:18;;;;;;;7.57;1.38;;;;;;;;;;2051566;28;20023;-65
2023/04/20 02:13:37;;;;;;;7.15;1.48;;;;;;;;;;2054375;28;20483;-61
2023/04/20 02:14:56;;;;;;;10.82;1.55;;;;;;;;;;2054988;28;20093;-64
2023/04/20 02:16:16;;;;;;;7.88;1.23;;;;;;;;;;2053943;28;20043;-63
2023/04/20 02:17:35;;;;;;;11.98;1.65;;;;;;;;;;2054351;28;20039;-64
2023/04/20 02:18:55;;;;;;;6.00;1.05;;;;;;;;;;2053143;28;20148;-63
2023/04/20 02:20:14;;;;;;;5.45;1.10;;;;;;;;;;2055191;28;20110;-64
2023/04/20 02:21:33;;;;;;;2.85;1.10;;;;;;;;;;2056411;28;20539;-64
2023/04/20 02:22:52;;;;;;;8.07;1.70;;;;;;;;;;2056025;28;20030;-64
2023/04/20 02:24:11;;;;;;;10.20;1.75;;;;;;;;;;2054126;28;20038;-64
2023/04/20 02:25:30;;;;;;;5.82;1.20;;;;;;;;;;2052883;28;20043;-66
2023/04/20 02:26:49;;;;;;;5.28;1.38;;;;;;;;;;2052214;28;20501;-66
2023/04/20 02:28:07;;;;;;;11.93;1.67;;;;;;;;;;2051230;28;20039;-64
2023/04/20 02:29:26;;;;;;;8.23;1.50;;;;;;;;;;2053261;28;20026;-63
2023/04/20 02:30:45;;;;;;;4.53;1.08;;;;;;;;;;2052767;28;20433;-64
2023/04/20 02:32:04;;;;;;;4.97;1.20;;;;;;;;;;2052245;28;20043;-63
2023/04/20 02:33:23;;;;;;;5.20;1.48;;;;;;;;;;2052658;28;20117;-64
2023/04/20 02:34:42;;;;;;;12.85;1.67;;;;;;;;;;2052601;28;20019;-64
2023/04/20 02:36:01;;;;;;;8.25;1.60;;;;;;;;;;2052627;28;20065;-64
2023/04/20 02:37:20;;;;;;;11.40;1.70;;;;;;;;;;2054078;28;20500;-63
2023/04/20 02:38:39;;;;;;;5.43;1.42;;;;;;;;;;2053593;28;20054;-64
2023/04/20 02:39:59;;;;;;;9.07;2.30;;;;;;;;;;2052957;28;20074;-64
2023/04/20 02:41:17;;;;;;;7.35;1.90;;;;;;;;;;2053440;28;20022;-63
2023/04/20 02:42:36;;;;;;;6.63;1.40;;;;;;;;;;2054814;28;20039;-64
2023/04/20 02:43:56;;;;;;;4.70;1.40;;;;;;;;;;2051856;28;20031;-64
2023/04/20 02:45:15;;;;;;;8.13;1.60;;;;;;;;;;2051806;28;20034;-65
2023/04/20 02:46:33;;;;;;;13.07;2.03;;;;;;;;;;2052540;28;20039;-64
2023/04/20 02:47:53;;;;;;;10.10;1.77;;;;;;;;;;2052505;28;20031;-61
2023/04/20 02:49:11;;;;;;;9.00;1.58;;;;;;;;;;2051736;28;20162;-64
2023/04/20 02:50:30;;;;;;;9.57;1.60;;;;;;;;;;2051910;28;20027;-64
2023/04/20 02:51:49;;;;;;;4.22;1.58;;;;;;;;;;2053273;28;20015;-65
2023/04/20 02:53:09;;;;;;;3.67;1.30;;;;;;;;;;2050331;28;20516;-64
2023/04/20 02:54:28;;;;;;;7.85;1.55;;;;;;;;;;2053709;28;20035;-67
2023/04/20 02:55:47;;;;;;;7.45;1.60;;;;;;;;;;2050805;28;20063;-65
2023/04/20 02:57:05;;;;;;;5.95;1.80;;;;;;;;;;2051515;28;20579;-65
2023/04/20 02:58:24;;;;;;;10.38;1.73;;;;;;;;;;2053633;28;20035;-65
2023/04/20 02:59:43;;;;;;;12.88;1.77;;;;;;;;;;2052285;28;20034;-64
2023/04/20 03:01:03;;;;;;;8.23;1.40;;;;;;;;;;2054390;28;20484;-64
2023/04/20 03:02:22;;;;;;;12.43;1.48;;;;;;;;;;2052409;28;20511;-64
2023/04/20 03:03:41;;;;;;;8.02;1.48;;;;;;;;;;2052124;28;20039;-64
2023/04/20 03:05:00;;;;;;;5.82;1.20;;;;;;;;;;2053198;28;20419;-63
2023/04/20 03:06:20;;;;;;;4.85;1.50;;;;;;;;;;2051745;28;20102;-64
2023/04/20 03:07:39;;;;;;;13.18;1.50;;;;;;;;;;2052654;28;20071;-64
2023/04/20 03:08:59;;;;;;;6.25;1.35;;;;;;;;;;2051873;28;20493;-65
2023/04/20 03:10:18;;;;;;;10.07;1.27;;;;;;;;;;2052541;28;20039;-64
2023/04/20 03:11:37;;;;;;;5.40;1.50;;;;;;;;;;2053919;28;20535;-64
2023/04/20 03:12:55;;;;;;;9.18;1.50;;;;;;;;;;2054466;28;20027;-64
2023/04/20 03:14:15;;;;;;;2.70;1.40;;;;;;;;;;2050220;28;20015;-64
2023/04/20 03:15:34;;;;;;;6.63;1.55;;;;;;;;;;2051690;28;20564;-64
2023/04/20 03:16:53;;;;;;;6.15;1.00;;;;;;;;;;2053881;28;20508;-64
2023/04/20 03:18:11;;;;;;;10.65;1.63;;;;;;;;;;2053070;28;20477;-64
2023/04/20 03:19:30;;;;;;;9.35;1.90;;;;;;;;;;2053245;28;20062;-64
2023/04/20 03:20:49;;;;;;;16.52;2.22;;;;;;;;;;2054545;28;20026;-64
2023/04/20 03:22:09;;;;;;;4.55;1.30;;;;;;;;;;2053857;28;20039;-64
2023/04/20 03:23:27;;;;;;;3.65;1.55;;;;;;;;;;2053037;28;20038;-64
2023/04/20 03:24:46;;;;;;;4.00;1.30;;;;;;;;;;2053980;28;20031;-64
2023/04/20 03:26:05;;;;;;;3.55;1.77;;;;;;;;;;2054650;28;20030;-64
2023/04/20 03:27:25;;;;;;;5.55;1.17;;;;;;;;;;2052846;28;20870;-64
2023/04/20 03:28:44;;;;;;;11.77;1.52;;;;;;;;;;2054144;28;20031;-65
2023/04/20 03:30:03;;;;;;;6.28;1.33;;;;;;;;;;2052517;28;20026;-64
2023/04/20 03:31:22;;;;;;;13.10;1.75;;;;;;;;;;2052334;28;20405;-64
2023/04/20 03:32:41;;;;;;;6.00;1.33;;;;;;;;;;2052031;28;20027;-64
2023/04/20 03:34:00;;;;;;;7.20;1.70;;;;;;;;;;2053452;28;20023;-64
2023/04/20 03:35:19;;;;;;;3.72;1.30;;;;;;;;;;2053639;28;20031;-63
2023/04/20 03:36:38;;;;;;;4.80;1.80;;;;;;;;;;2051577;28;20508;-64
2023/04/20 03:37:58;;;;;;;5.70;1.30;;;;;;;;;;2051928;28;20066;-64
2023/04/20 03:39:16;;;;;;;6.38;1.50;;;;;;;;;;2053279;28;20031;-64
2023/04/20 03:40:35;;;;;;;6.47;1.35;;;;;;;;;;2052690;28;20027;-63
2023/04/20 03:41:56;;;;;;;6.88;1.52;;;;;;;;;;2055253;28;20110;-65
2023/04/20 03:43:15;;;;;;;10.65;1.73;;;;;;;;;;2055362;28;20424;-64
2023/04/20 03:44:34;;;;;;;3.72;1.40;;;;;;;;;;2052816;28;20046;-64
2023/04/20 03:45:54;;;;;;;5.18;1.52;;;;;;;;;;2055844;28;20035;-65
2023/04/20 03:47:13;;;;;;;10.48;1.75;;;;;;;;;;2053180;28;20027;-65
2023/04/20 03:48:33;;;;;;;4.13;1.20;;;;;;;;;;2051998;28;20038;-65
2023/04/20 03:49:51;;;;;;;4.18;1.48;;;;;;;;;;2053582;28;20034;-65
2023/04/20 03:51:10;;;;;;;6.10;1.90;;;;;;;;;;2055084;28;20462;-64
2023/04/20 03:52:29;;;;;;;5.68;1.60;;;;;;;;;;2055513;28;20436;-64
2023/04/20 03:53:48;;;;;;;7.97;1.58;;;;;;;;;;2055960;28;20031;-64
2023/04/20 03:55:07;;;;;;;5.20;1.23;;;;;;;;;;2055392;28;20427;-64
2023/04/20 03:56:27;;;;;;;4.55;1.40;;;;;;;;;;2052782;28;20034;-64
2023/04/20 03:57:45;;;;;;;6.70;1.35;;;;;;;;;;2053997;28;20027;-64
2023/04/20 03:59:05;;;;;;;5.15;1.50;;;;;;;;;;2054961;28;20941;-64
2023/04/20 04:00:23;;;;;;;5.45;1.42;;;;;;;;;;2053100;28;20059;-64
2023/04/20 04:01:43;;;;;;;5.68;1.70;;;;;;;;;;2054236;28;20035;-66
2023/04/20 04:03:02;;;;;;;13.48;1.60;;;;;;;;;;2055677;28;20039;-63
2023/04/20 04:04:21;;;;;;;15.18;1.70;;;;;;;;;;2055875;28;20513;-64
2023/04/20 04:05:41;;;;;;;7.63;1.48;;;;;;;;;;2055375;28;20495;-64
2023/04/20 04:07:00;;;;;;;10.27;1.38;;;;;;;;;;2053907;28;20496;-64
2023/04/20 04:08:19;;;;;;;6.38;1.40;;;;;;;;;;2055884;28;20038;-65
2023/04/20 04:09:38;;;;;;;5.47;1.67;;;;;;;;;;2054031;28;20392;-64
2023/04/20 04:10:57;;;;;;;18.52;1.75;;;;;;;;;;2053947;28;20043;-65
2023/04/20 04:12:16;;;;;;;8.10;1.63;;;;;;;;;;2052486;28;20076;-64
2023/04/20 04:13:35;;;;;;;9.88;1.88;;;;;;;;;;2056157;28;20038;-64
2023/04/20 04:14:54;;;;;;;11.80;2.00;;;;;;;;;;2053536;28;20496;-64
2023/04/20 04:16:13;;;;;;;9.13;1.70;;;;;;;;;;2051832;28;20034;-64
2023/04/20 04:17:32;;;;;;;12.48;2.78;;;;;;;;;;2054014;28;20039;-64
2023/04/20 04:18:51;;;;;;;10.63;1.55;;;;;;;;;;2050142;28;20105;-64
2023/04/20 04:20:10;;;;;;;9.30;1.85;;;;;;;;;;2051822;28;20035;-64
2023/04/20 04:21:30;;;;;;;8.85;2.40;;;;;;;;;;2050394;28;20456;-64
2023/04/20 04:22:50;;;;;;;17.98;2.35;;;;;;;;;;2054009;28;20567;-64
2023/04/20 04:24:10;;;;;;;12.43;1.83;;;;;;;;;;2052555;28;20023;-64
2023/04/20 04:25:29;;;;;;;9.55;2.00;;;;;;;;;;2054458;28;20019;-64
2023/04/20 04:26:48;;;;;;;12.93;2.25;;;;;;;;;;2053538;28;20415;-63
2023/04/20 04:28:07;;;;;;;18.02;2.22;;;;;;;;;;2049791;28;20464;-63
2023/04/20 04:29:26;;;;;;;20.25;2.25;;;;;;;;;;2050133;28;20039;-64
2023/04/20 04:30:46;;;;;;;17.55;2.40;;;;;;;;;;2053749;28;20034;-63
2023/04/20 04:32:04;;;;;;;12.55;2.20;;;;;;;;;;2055739;28;20023;-64
2023/04/20 04:33:24;;;;;;;16.15;2.35;;;;;;;;;;2049941;28;20030;-64
2023/04/20 04:34:43;;;;;;;20.88;2.03;;;;;;;;;;2051537;28;20582;-65
2023/04/20 04:36:02;;;;;;;15.07;2.42;;;;;;;;;;2054335;28;20105;-65
2023/04/20 04:37:22;;;;;;;23.85;2.30;;;;;;;;;;2047144;28;20034;-64
2023/04/20 04:38:44;;;;;;;14.60;2.15;;;;;;;;;;2056198;28;20534;-64
2023/04/20 04:40:05;;;;;;;15.48;2.35;;;;;;;;;;2056752;28;20042;-64
2023/04/20 04:41:24;;;;;;;17.80;2.53;;;;;;;;;;2053940;28;20030;-64
2023/04/20 04:42:44;;;;;;;22.23;2.58;;;;;;;;;;2052363;28;20027;-64
2023/04/20 04:44:04;;;;;;;14.52;2.53;;;;;;;;;;2055178;28;20202;-64
2023/04/20 04:45:24;;;;;;;31.52;3.80;;;;;;;;;;2054466;28;20023;-65
2023/04/20 04:46:44;;;;;;;17.58;2.88;;;;;;;;;;2054365;28;20171;-65
2023/04/20 04:48:04;;;;;;;23.80;2.95;;;;;;;;;;2054104;28;20512;-64
2023/04/20 04:49:26;;;;;;;18.00;2.60;;;;;;;;;;2056339;28;20631;-64
2023/04/20 04:50:45;;;;;;;26.30;2.92;;;;;;;;;;2056535;28;20039;-65
2023/04/20 04:52:05;;;;;;;17.23;2.78;;;;;;;;;;2055298;28;20031;-65
2023/04/20 04:53:24;;;;;;;25.05;3.10;;;;;;;;;;2054237;28;20439;-63
2023/04/20 04:54:43;;;;;;;17.70;2.80;;;;;;;;;;2056311;28;20035;-64
2023/04/20 04:56:03;;;;;;;9.98;2.55;;;;;;;;;;2052869;28;20504;-64
2023/04/20 04:57:22;;;;;;;27.17;3.53;;;;;;;;;;2050749;28;20027;-64
2023/04/20 04:58:41;;;;;;;19.15;2.30;;;;;;;;;;2054205;28;20042;-63
2023/04/20 05:00:00;;;;;;;21.60;2.00;;;;;;;;;;2053989;28;20023;-64
2023/04/20 05:01:19;;;;;;;14.07;2.17;;;;;;;;;;2052163;28;20035;-63
2023/04/20 05:02:39;;;;;;;20.50;2.65;;;;;;;;;;2051363;28;20089;-64
2023/04/20 05:03:59;;;;;;;14.40;2.40;;;;;;;;;;2054388;28;20051;-64
2023/04/20 05:05:19;;;;;;;26.00;3.50;;;;;;;;;;2053451;28;20054;-62
2023/04/20 05:06:38;;;;;;;17.55;2.90;;;;;;;;;;2055759;28;20031;-65
2023/04/20 05:07:57;;;;;;;19.52;3.00;;;;;;;;;;2053464;28;20401;-63
2023/04/20 05:09:16;;;;;;;25.02;3.20;;;;;;;;;;2054959;28;20030;-65
2023/04/20 05:10:37;;;;;;;25.00;3.13;;;;;;;;;;2054715;28;20142;-64
2023/04/20 05:11:57;;;;;;;29.15;2.60;;;;;;;;;;2055388;28;20472;-65
2023/04/20 05:13:15;;;;;;;17.80;2.28;;;;;;;;;;2052178;28;20075;-64
2023/04/20 05:14:37;;;;;;;20.77;2.30;;;;;;;;;;2053722;28;20568;-64
2023/04/20 05:15:56;;;;;;;24.40;1.95;;;;;;;;;;2053147;28;20058;-64
2023/04/20 05:17:15;;;;;;;11.68;1.63;;;;;;;;;;2053996;28;20038;-64
2023/04/20 05:18:34;;;;;;;15.55;2.08;;;;;;;;;;2050743;28;20031;-66
2023/04/20 05:19:53;;;;;;;15.15;1.88;;;;;;;;;;2052694;28;20035;-64
2023/04/20 05:21:12;;;;;;;17.58;2.60;;;;;;;;;;2052313;28;20836;-64
2023/04/20 05:22:31;;;;;;;12.45;2.03;;;;;;;;;;2050839;28;20035;-64
2023/04/20 05:23:50;;;;;;;14.93;2.72;;;;;;;;;;2053969;28;20039;-63
2023/04/20 05:25:10;;;;;;;9.18;1.58;;;;;;;;;;2047471;28;20039;-63
2023/04/20 05:26:29;;;;;;;13.68;2.10;;;;;;;;;;2052199;28;20035;-64
2023/04/20 05:27:48;;;;;;;15.63;1.80;;;;;;;;;;2052426;28;20395;-62
2023/04/20 05:29:07;;;;;;;16.88;2.10;;;;;;;;;;2055515;28;20113;-63
2023/04/20 05:30:26;;;;;;;8.82;1.98;;;;;;;;;;2054944;28;20031;-65
2023/04/20 05:31:45;;;;;;;27.08;2.75;;;;;;;;;;2054755;28;20031;-64
2023/04/20 05:33:04;;;;;;;10.60;1.67;;;;;;;;;;2054545;28;20099;-64
2023/04/20 05:34:23;;;;;;;17.60;2.22;;;;;;;;;;2053745;28;20392;-64
2023/04/20 05:35:42;;;;;;;19.23;2.05;;;;;;;;;;2053327;28;20023;-65
2023/04/20 05:37:02;;;;;;;24.60;2.30;;;;;;;;;;2053293;28;20938;-67
2023/04/20 05:38:21;;;;;;;15.02;2.88;;;;;;;;;;2052271;28;20046;-64
2023/04/20 05:39:40;;;;;;;22.20;2.58;;;;;;;;;;2053951;28;20473;-63
2023/04/20 05:40:59;;;;;;;17.67;2.60;;;;;;;;;;2053105;28;20035;-64
2023/04/20 05:42:18;;;;;;;25.13;2.42;;;;;;;;;;2053538;28;20043;-65
2023/04/20 05:43:37;;;;;;;16.15;2.20;;;;;;;;;;2051986;28;20031;-63
2023/04/20 05:44:56;;;;;;;23.40;2.70;;;;;;;;;;2054220;28;20031;-63
2023/04/20 05:46:15;;;;;;;20.55;2.63;;;;;;;;;;2054615;28;20034;-64
2023/04/20 05:47:34;;;;;;;15.23;2.05;;;;;;;;;;2051901;28;20019;-64
2023/04/20 05:48:54;;;;;;;14.60;2.53;;;;;;;;;;2052576;28;20453;-63
2023/04/20 05:50:13;;;;;;;22.00;2.55;;;;;;;;;;2054591;28;20472;-64
2023/04/20 05:51:32;;;;;;;27.50;2.63;;;;;;;;;;2055416;28;20027;-63
2023/04/20 05:52:52;;;;;;;14.10;3.00;;;;;;;;;;2053082;28;20484;-63
2023/04/20 05:54:11;;;;;;;40.00;3.30;;;;;;;;;;2054252;28;20026;-64
2023/04/20 05:55:30;;;;;;;26.67;2.78;;;;;;;;;;2052579;28;20031;-64
2023/04/20 05:56:49;;;;;;;18.17;2.35;;;;;;;;;;2050331;28;20400;-63
2023/04/20 05:58:09;;;;;;;20.55;3.00;;;;;;;;;;2053363;28;20030;-63
2023/04/20 05:59:27;;;;;;;30.02;2.80;;;;;;;;;;2053013;28;20126;-64
2023/04/20 06:00:47;;;;;;;23.95;3.35;;;;;;;;;;2054146;28;20027;-64
2023/04/20 06:02:05;;;;;;;21.55;2.13;;;;;;;;;;2053745;28;20031;-64
2023/04/20 06:03:24;;;;;;;13.75;1.92;;;;;;;;;;2054185;28;20042;-65
2023/04/20 06:04:43;;;;;;;24.40;2.67;;;;;;;;;;2054101;28;20519;-65
2023/04/20 06:06:02;;;;;;;12.52;2.63;;;;;;;;;;2055511;28;20027;-64
2023/04/20 06:07:21;;;;;;;16.92;2.47;;;;;;;;;;2054909;28;20027;-64
2023/04/20 06:08:40;;;;;;;29.63;3.00;;;;;;;;;;2054567;28;20031;-64
2023/04/20 06:10:00;;;;;;;18.00;1.98;;;;;;;;;;2055306;28;20031;-63
2023/04/20 06:11:19;;;;;;;17.83;1.70;;;;;;;;;;2052919;28;20034;-63
2023/04/20 06:12:38;;;;;;;16.92;2.45;;;;;;;;;;2053995;28;20027;-64
2023/04/20 06:13:57;;;;;;;18.52;2.13;;;;;;;;;;2053601;28;20054;-63
2023/04/20 06:15:16;;;;;;;7.72;1.60;;;;;;;;;;2052783;28;20493;-64
2023/04/20 06:16:35;;;;;;;14.63;2.17;;;;;;;;;;2054110;28;20031;-64
2023/04/20 06:17:55;;;;;;;13.15;2.15;;;;;;;;;;2053191;28;20026;-64
2023/04/20 06:19:14;;;;;;;17.35;2.05;;;;;;;;;;2053532;28;20027;-64
2023/04/20 06:20:33;;;;;;;42.55;3.72;;;;;;;;;;2048478;28;20031;-63
2023/04/20 06:21:52;;;;;;;19.95;3.05;;;;;;;;;;2052490;28;20070;-63
2023/04/20 06:23:11;;;;;;;12.20;1.60;;;;;;;;;;2052426;28;20023;-64
2023/04/20 06:24:30;;;;;;;11.15;1.60;;;;;;;;;;2055026;28;20516;-64
2023/04/20 06:25:49;;;;;;;19.15;2.22;;;;;;;;;;2053852;28;20501;-63
2023/04/20 06:27:08;;;;;;;29.75;2.55;;;;;;;;;;2054005;28;20953;-64
2023/04/20 06:28:27;;;;;;;11.02;2.13;;;;;;;;;;2054014;28;20492;-63
2023/04/20 06:29:46;;;;;;;18.60;2.72;;;;;;;;;;2053441;28;20031;-63
2023/04/20 06:31:06;;;;;;;13.55;1.90;;;;;;;;;;2054201;28;20031;-63
2023/04/20 06:32:25;;;;;;;16.70;2.42;;;;;;;;;;2054550;28;20062;-64
2023/04/20 06:33:44;;;;;;;22.65;2.80;;;;;;;;;;2055068;28;20035;-64
2023/04/20 06:35:04;;;;;;;12.23;2.15;;;;;;;;;;2054916;28;20023;-63
2023/04/20 06:36:23;;;;;;;11.25;1.58;;;;;;;;;;2054295;28;20066;-63
2023/04/20 06:37:42;;;;;;;12.70;1.80;;;;;;;;;;2052876;28;20427;-63
2023/04/20 06:39:01;;;;;;;20.23;1.80;;;;;;;;;;2053288;28;20157;-63
2023/04/20 06:40:20;;;;;;;15.90;1.60;;;;;;;;;;2054308;28;20034;-61
2023/04/20 06:41:39;;;;;;;23.45;2.40;;;;;;;;;;2052574;28;20035;-64
2023/04/20 06:42:58;;;;;;;14.18;2.63;;;;;;;;;;2054336;28;20094;-64
2023/04/20 06:44:17;;;;;;;26.17;3.00;;;;;;;;;;2052995;28;20055;-64
2023/04/20 06:45:36;;;;;;;18.48;2.47;;;;;;;;;;2053004;28;20031;-64
2023/04/20 06:46:55;;;;;;;13.05;1.73;;;;;;;;;;2053659;28;20027;-64
2023/04/20 06:48:14;;;;;;;12.55;1.42;;;;;;;;;;2053062;28;20543;-64
2023/04/20 06:49:33;;;;;;;13.93;1.48;;;;;;;;;;2054356;28;20485;-64
2023/04/20 06:50:52;;;;;;;10.45;1.33;;;;;;;;;;2055521;28;20026;-64
2023/04/20 06:52:11;;;;;;;9.38;1.17;;;;;;;;;;2055420;28;20047;-65
2023/04/20 06:53:30;;;;;;;10.52;1.30;;;;;;;;;;2051100;28;20023;-64
2023/04/20 06:54:49;;;;;;;11.77;1.70;;;;;;;;;;2054017;28;20484;-65
2023/04/20 06:56:08;;;;;;;11.55;1.20;;;;;;;;;;2053618;28;20052;-64
2023/04/20 06:57:27;;;;;;;4.40;1.55;;;;;;;;;;2051756;28;20035;-65
2023/04/20 06:58:46;;;;;;;7.05;1.30;;;;;;;;;;2052608;28;20098;-65
2023/04/20 07:00:07;;;;;;;4.90;1.35;;;;;;;;;;2053527;28;20031;-63
2023/04/20 07:01:26;;;;;;;7.72;1.30;;;;;;;;;;2053779;28;20039;-64
2023/04/20 07:02:47;;;;;;;5.25;1.70;;;;;;;;;;2055977;28;20098;-63
2023/04/20 07:04:05;;;;;;;10.52;1.42;;;;;;;;;;2053562;28;20062;-65
2023/04/20 07:05:27;;;;;;;9.88;1.38;;;;;;;;;;2053384;28;20031;-65
2023/04/20 07:06:48;;;;;;;12.55;1.80;;;;;;;;;;2052772;28;21081;-63
2023/04/20 07:08:08;;;;;;;8.82;1.35;;;;;;;;;;2054505;28;20027;-64
2023/04/20 07:09:27;;;;;;;11.50;1.52;;;;;;;;;;2054040;28;20035;-65
2023/04/20 07:10:46;;;;;;;11.80;2.00;;;;;;;;;;2053769;28;20388;-65
2023/04/20 07:12:05;;;;;;;18.45;2.17;;;;;;;;;;2053890;28;20027;-64
2023/04/20 07:13:24;;;;;;;8.45;1.30;;;;;;;;;;2055236;28;20031;-64
2023/04/20 07:14:43;;;;;;;10.90;1.38;;;;;;;;;;2053802;28;20026;-64
2023/04/20 07:16:02;;;;;;;11.63;1.17;;;;;;;;;;2053341;28;20031;-63
2023/04/20 07:17:21;;;;;;;11.60;1.25;;;;;;;;;;2050298;28;20491;-63
2023/04/20 07:18:39;;;;;;;10.82;1.95;;;;;;;;;;2054365;28;20066;-63
2023/04/20 07:20:05;;;;;;;11.18;1.30;;;;;;;;;;2053170;28;20063;-64
2023/04/20 07:21:26;;;;;;;24.45;2.15;;;;;;;;;;2051508;28;20652;-63
2023/04/20 07:22:46;;;;;;;5.07;1.90;;;;;;;;;;2054834;28;20039;-64
2023/04/20 07:24:05;;;;;;;11.38;1.13;;;;;;;;;;2056417;28;20027;-63
2023/04/20 07:25:24;;;;;;;10.20;1.10;;;;;;;;;;2055649;28;20106;-65
2023/04/20 07:26:43;;;;;;;5.78;0.80;;;;;;;;;;2055080;28;20031;-63
2023/04/20 07:28:02;;;;;;;4.35;1.00;;;;;;;;;;2055773;28;20035;-65
2023/04/20 07:29:21;;;;;;;7.28;1.83;;;;;;;;;;2054126;28;20034;-63
2023/04/20 07:30:40;;;;;;;10.60;1.17;;;;;;;;;;2055239;28;20027;-63
2023/04/20 07:31:59;;;;;;;9.18;1.85;;;;;;;;;;2054344;28;20019;-63
2023/04/20 07:33:19;;;;;;;7.97;0.82;;;;;;;;;;2055611;28;20201;-64
2023/04/20 07:34:39;;;;;;;5.57;1.17;;;;;;;;;;2056383;28;20098;-63
2023/04/20 07:35:59;;;;;;;11.45;0.90;;;;;;;;;;2056336;28;20487;-64
2023/04/20 07:37:18;;;;;;;9.02;0.98;;;;;;;;;;2054477;28;20437;-63
2023/04/20 07:38:37;;;;;;;12.45;1.23;;;;;;;;;;2054450;28;20043;-63
2023/04/20 07:39:56;;;;;;;5.70;0.80;;;;;;;;;;2055128;28;20039;-63
2023/04/20 07:41:15;;;;;;;4.20;1.27;;;;;;;;;;2052381;28;20468;-63
2023/04/20 07:42:35;;;;;;;7.95;1.08;;;;;;;;;;2054708;28;20039;-63
2023/04/20 07:43:55;;;;;;;9.23;0.88;;;;;;;;;;2053671;28;20503;-62
2023/04/20 07:45:14;;;;;;;12.68;1.20;;;;;;;;;;2053837;28;20035;-63
2023/04/20 07:46:32;;;;;;;7.72;1.98;;;;;;;;;;2053811;28;20109;-63
2023/04/20 07:47:53;;;;;;;9.13;1.50;;;;;;;;;;2056714;28;20480;-63
2023/04/20 07:49:12;;;;;;;10.55;1.65;;;;;;;;;;2055746;28;20460;-64
2023/04/20 07:50:31;;;;;;;11.07;1.50;;;;;;;;;;2055423;28;20408;-64
2023/04/20 07:51:49;;;;;;;6.10;1.10;;;;;;;;;;2052644;28;20027;-62